Time;durP1;ratioP1;P1;durP2;ratioP2;P2;SDS_P1;SDS_P2;PMS_P1;PMS_P2;Temp;Humidity;BMP_temperature;BMP_pressure;BME280_temperature;BME280_humidity;BME280_pressure;Samples;Min_cycle;Max_cycle;Signal;HPM_P1;HPM_P2
2022/12/18 00:01:44;;;;;;;77.75;33.50;;;-3273.70;91.70;;;;;;5016835;28;20057;-42
2022/12/18 00:04:31;;;;;;;82.00;35.75;;;-3273.60;91.60;;;;;;5055048;28;20167;-41
2022/12/18 00:07:00;;;;;;;85.97;36.15;;;-3273.60;91.70;;;;;;5036657;28;20041;-45
2022/12/18 00:09:27;;;;;;;84.07;35.78;;;-3273.60;91.90;;;;;;5033453;28;20355;-41
2022/12/18 00:11:53;;;;;;;86.68;37.35;;;-3273.60;91.80;;;;;;5035252;28;20057;-45
2022/12/18 00:14:22;;;;;;;96.15;37.75;;;-3273.60;91.70;;;;;;5042511;28;20021;-42
2022/12/18 00:16:52;;;;;;;91.20;37.20;;;-3273.60;91.90;;;;;;5054800;28;20522;-42
2022/12/18 00:19:19;;;;;;;88.90;38.17;;;-3273.60;92.00;;;;;;5053610;28;20037;-42
2022/12/18 00:21:45;;;;;;;88.80;38.35;;;-3273.60;92.00;;;;;;5054770;28;20505;-40
2022/12/18 00:24:13;;;;;;;85.18;37.85;;;-3273.60;92.00;;;;;;5053358;28;20037;-41
2022/12/18 00:26:39;;;;;;;86.57;36.13;;;-3273.50;91.80;;;;;;5054326;28;20033;-42
2022/12/18 00:29:13;;;;;;;84.75;37.60;;;-3273.60;92.00;;;;;;5054583;28;20056;-41
2022/12/18 00:31:42;;;;;;;79.80;33.90;;;-3273.60;92.00;;;;;;5051752;28;20148;-40
2022/12/18 00:34:11;;;;;;;81.50;36.45;;;-3273.60;91.70;;;;;;5033746;28;20148;-40
2022/12/18 00:36:39;;;;;;;87.03;35.50;;;-3273.60;91.90;;;;;;5034798;28;20049;-43
2022/12/18 00:39:07;;;;;;;84.35;36.20;;;-3273.60;91.80;;;;;;5034658;28;20025;-40
2022/12/18 00:44:19;;;;;;;81.82;33.88;;;-3273.60;91.80;;;;;;5034513;28;20159;-41
2022/12/18 00:46:48;;;;;;;83.80;37.42;;;-3273.60;91.70;;;;;;5054213;28;20072;-41
2022/12/18 00:49:19;;;;;;;82.63;38.27;;;-3273.60;91.70;;;;;;5054357;28;20021;-43
2022/12/18 00:51:46;;;;;;;85.70;37.85;;;-3273.60;91.60;;;;;;5044319;28;20435;-40
2022/12/18 00:54:12;;;;;;;99.35;36.70;;;-3273.50;91.50;;;;;;5015955;28;20026;-47
2022/12/18 00:56:39;;;;;;;85.65;36.92;;;-3273.60;91.70;;;;;;5033978;28;20026;-40
2022/12/18 00:59:06;;;;;;;82.95;35.65;;;-3273.50;91.50;;;;;;5035529;28;20029;-40
2022/12/18 01:01:33;;;;;;;81.30;34.55;;;-3273.50;91.60;;;;;;5022895;28;20049;-42
2022/12/18 01:04:02;;;;;;;86.97;36.92;;;-3273.50;91.70;;;;;;5017143;28;20033;-42
2022/12/18 01:06:32;;;;;;;92.50;36.45;;;-3273.50;91.60;;;;;;5014266;28;20030;-40
2022/12/18 01:08:59;;;;;;;89.53;38.83;;;-3273.50;91.70;;;;;;5013291;28;20026;-40
2022/12/18 01:11:27;;;;;;;91.85;34.97;;;-3273.50;91.80;;;;;;5023960;28;20099;-43
2022/12/18 01:13:55;;;;;;;89.90;37.25;;;-3273.50;91.60;;;;;;5033010;28;20087;-42
2022/12/18 01:16:22;;;;;;;95.65;36.78;;;-3273.50;91.70;;;;;;5023818;28;20031;-40
2022/12/18 01:18:53;;;;;;;84.95;36.67;;;-3273.50;91.80;;;;;;5029906;28;20045;-41
2022/12/18 01:21:21;;;;;;;94.20;36.25;;;-3273.50;91.80;;;;;;5021811;28;20080;-43
2022/12/18 01:23:52;;;;;;;97.95;37.85;;;-3273.50;91.80;;;;;;5024728;28;20095;-40
2022/12/18 01:26:19;;;;;;;90.25;37.00;;;-3273.60;91.90;;;;;;5024272;28;20084;-43
2022/12/18 01:28:48;;;;;;;101.97;38.88;;;-3273.60;91.80;;;;;;5032874;28;20111;-43
2022/12/18 01:31:21;;;;;;;88.78;35.72;;;-3273.60;91.90;;;;;;5033801;28;20017;-45
2022/12/18 01:33:52;;;;;;;92.90;39.15;;;-3273.50;91.80;;;;;;5033515;28;20064;-40
2022/12/18 01:36:24;;;;;;;87.35;37.47;;;-3273.60;91.80;;;;;;5033495;28;20034;-43
2022/12/18 01:38:51;;;;;;;88.22;37.72;;;-3273.60;91.80;;;;;;5033627;28;20037;-45
2022/12/18 01:41:22;;;;;;;92.18;36.17;;;-3273.60;91.90;;;;;;5032783;28;20044;-41
2022/12/18 01:43:53;;;;;;;88.35;36.20;;;-3273.50;91.70;;;;;;5025469;28;20124;-40
2022/12/18 01:46:25;;;;;;;80.60;35.30;;;-3273.60;91.60;;;;;;5027018;28;20362;-40
2022/12/18 01:48:59;;;;;;;87.57;38.30;;;-3273.50;91.40;;;;;;5022135;28;20025;-40
2022/12/18 01:51:33;;;;;;;87.20;35.17;;;-3273.50;91.50;;;;;;5024121;28;20469;-41
2022/12/18 01:53:59;;;;;;;75.68;33.92;;;-3273.40;91.30;;;;;;5013644;28;20091;-40
2022/12/18 01:56:26;;;;;;;87.82;37.50;;;-3273.40;91.30;;;;;;5012648;28;20041;-40
2022/12/18 01:59:07;;;;;;;83.85;33.78;;;-3273.40;91.30;;;;;;5013350;28;20037;-41
2022/12/18 02:01:37;;;;;;;88.57;35.58;;;-3273.40;91.30;;;;;;5023434;28;20140;-45
2022/12/18 02:04:25;;;;;;;83.60;37.45;;;-3273.30;91.00;;;;;;5020401;28;20045;-40
2022/12/18 02:07:03;;;;;;;74.10;33.40;;;-3273.40;91.10;;;;;;5015836;28;20040;-40
2022/12/18 02:09:37;;;;;;;94.15;35.92;;;-3273.30;90.90;;;;;;5013216;28;20413;-40
2022/12/18 02:12:41;;;;;;;83.90;34.95;;;-3273.40;91.00;;;;;;5013686;28;20026;-46
2022/12/18 02:15:18;;;;;;;92.93;37.42;;;-3273.30;90.70;;;;;;5020613;28;20095;-43
2022/12/18 02:17:49;;;;;;;79.78;35.42;;;-3273.30;90.60;;;;;;5024290;28;20030;-42
2022/12/18 02:20:42;;;;;;;80.68;35.97;;;-3273.10;90.40;;;;;;5022974;28;20056;-41
2022/12/18 02:23:45;;;;;;;84.80;34.95;;;-3273.10;90.50;;;;;;5023047;28;20033;-42
2022/12/18 02:26:44;;;;;;;88.10;34.53;;;-3273.10;90.60;;;;;;5032438;28;20033;-40
2022/12/18 02:29:31;;;;;;;;;;;-3273.10;90.60;;;;;;5012548;28;20037;-40
2022/12/18 02:32:02;;;;;;;81.32;33.63;;;-3273.10;90.60;;;;;;5011254;28;19920;-42
2022/12/18 02:34:36;;;;;;;76.43;32.30;;;-3273.10;90.80;;;;;;5012990;28;20084;-42
2022/12/18 02:37:09;;;;;;;86.45;35.38;;;-3273.00;90.50;;;;;;5052624;28;20029;-41
2022/12/18 02:39:38;;;;;;;82.10;32.35;;;-3272.90;90.70;;;;;;5052631;28;20041;-41
2022/12/18 02:42:10;;;;;;;80.10;34.60;;;-3272.90;90.60;;;;;;5036078;28;20037;-41
2022/12/18 02:44:49;;;;;;;77.03;34.15;;;-3273.00;90.80;;;;;;5032594;28;20037;-41
2022/12/18 02:47:20;;;;;;;89.93;37.35;;;-3273.00;90.70;;;;;;5032442;28;20025;-41
2022/12/18 02:50:07;;;;;;;84.70;34.78;;;-3273.10;90.80;;;;;;5032003;28;20021;-40
2022/12/18 02:52:54;;;;;;;77.63;33.15;;;-3273.00;90.50;;;;;;5012767;28;20025;-43
2022/12/18 02:55:58;;;;;;;78.78;34.55;;;-3272.90;90.30;;;;;;5012723;28;20351;-41
2022/12/18 02:58:56;;;;;;;86.15;35.17;;;-3272.90;90.40;;;;;;5012273;28;20036;-40
2022/12/18 03:01:33;;;;;;;82.28;36.22;;;-3272.90;90.50;;;;;;5016950;28;20137;-40
2022/12/18 03:04:15;;;;;;;82.35;35.17;;;-3272.90;90.40;;;;;;5052509;28;20080;-41
2022/12/18 03:06:48;;;;;;;86.85;39.35;;;-3272.80;90.30;;;;;;5035999;28;20029;-41
2022/12/18 03:09:29;;;;;;;83.68;36.83;;;-3272.80;90.20;;;;;;5044072;28;20021;-41
2022/12/18 03:12:24;;;;;;;81.03;34.08;;;-3272.80;90.30;;;;;;5037417;28;20022;-40
2022/12/18 03:15:28;;;;;;;82.10;35.60;;;-3272.80;90.30;;;;;;5032388;28;20021;-40
2022/12/18 03:18:06;;;;;;;79.25;33.42;;;-3272.80;90.30;;;;;;5033994;28;20374;-40
2022/12/18 03:20:36;;;;;;;84.43;35.70;;;-3272.80;90.50;;;;;;5036059;28;20064;-41
2022/12/18 03:23:10;;;;;;;;;;;-3272.70;90.20;;;;;;5036011;28;20478;-41
2022/12/18 03:25:43;;;;;;;80.00;31.55;;;-3272.70;90.30;;;;;;5035768;28;20223;-42
2022/12/18 03:28:16;;;;;;;84.20;34.38;;;-3272.70;90.30;;;;;;5036027;28;20115;-40
2022/12/18 03:30:45;;;;;;;75.95;33.17;;;-3272.60;90.20;;;;;;5036391;28;20083;-43
2022/12/18 03:33:25;;;;;;;80.20;35.40;;;-3272.60;90.30;;;;;;5034932;28;20116;-42
2022/12/18 03:35:52;;;;;;;79.50;34.20;;;-3272.60;90.20;;;;;;5036013;28;20509;-40
2022/12/18 03:38:19;;;;;;;74.28;33.00;;;-3272.60;90.20;;;;;;5044264;28;20065;-42
2022/12/18 03:41:16;;;;;;;83.20;34.53;;;-3272.60;90.20;;;;;;5055688;28;20468;-40
2022/12/18 03:44:25;;;;;;;74.10;34.90;;;-3272.60;90.00;;;;;;5055608;28;20102;-42
2022/12/18 03:47:15;;;;;;;77.25;34.47;;;-3272.60;90.10;;;;;;5024118;28;20042;-40
2022/12/18 03:50:12;;;;;;;76.82;30.67;;;-3272.50;89.80;;;;;;5015975;28;20048;-41
2022/12/18 03:53:08;;;;;;;80.57;35.08;;;-3272.40;89.70;;;;;;5015734;28;20057;-42
2022/12/18 03:55:36;;;;;;;74.05;32.13;;;-3272.50;89.80;;;;;;5014577;28;20052;-41
2022/12/18 03:58:06;;;;;;;72.60;32.10;;;-3272.50;89.80;;;;;;5015717;28;20428;-42
2022/12/18 04:00:34;;;;;;;78.82;32.22;;;-3272.50;89.80;;;;;;5024945;28;20049;-40
2022/12/18 04:03:05;;;;;;;70.30;34.08;;;-3272.40;89.30;;;;;;5035341;28;20037;-40
2022/12/18 04:05:34;;;;;;;68.40;32.10;;;-3272.40;89.60;;;;;;5029771;28;20075;-40
2022/12/18 04:08:02;;;;;;;72.47;32.70;;;-3272.40;89.50;;;;;;5028084;28;20021;-43
2022/12/18 04:10:29;;;;;;;60.28;29.40;;;-3272.40;89.70;;;;;;5035308;28;20054;-41
2022/12/18 04:12:57;;;;;;;72.18;30.88;;;-3272.30;89.50;;;;;;5018091;28;20030;-44
2022/12/18 04:15:24;;;;;;;72.07;30.92;;;-3272.40;89.60;;;;;;5034079;28;20017;-41
2022/12/18 04:17:51;;;;;;;79.13;31.88;;;-3272.30;89.40;;;;;;5035119;28;20052;-43
2022/12/18 04:20:18;;;;;;;72.05;32.38;;;-3272.20;89.40;;;;;;5034183;28;20037;-42
2022/12/18 04:22:49;;;;;;;68.47;30.17;;;-3272.30;89.50;;;;;;5037867;28;20041;-43
2022/12/18 04:25:15;;;;;;;69.22;31.55;;;-3272.20;89.20;;;;;;5054688;28;20042;-41
2022/12/18 04:27:42;;;;;;;69.40;34.40;;;-3272.30;89.40;;;;;;5054450;28;20028;-43
2022/12/18 04:30:10;;;;;;;68.10;32.65;;;-3272.30;89.20;;;;;;5053598;28;20439;-44
2022/12/18 04:32:36;;;;;;;63.58;31.10;;;-3272.20;89.20;;;;;;5044319;28;20042;-41
2022/12/18 04:35:04;;;;;;;69.72;31.52;;;-3272.30;89.00;;;;;;5034908;28;20037;-40
2022/12/18 04:37:35;;;;;;;66.57;31.27;;;-3272.20;89.00;;;;;;5033622;28;20091;-40
2022/12/18 04:40:04;;;;;;;68.75;32.97;;;-3272.20;89.00;;;;;;5034057;28;20052;-40
2022/12/18 04:42:31;;;;;;;64.38;33.17;;;-3272.10;89.00;;;;;;5047698;28;20036;-43
2022/12/18 04:44:58;;;;;;;65.80;30.90;;;-3272.10;88.80;;;;;;5053538;28;20395;-43
2022/12/18 04:47:28;;;;;;;77.28;31.55;;;-3272.10;88.80;;;;;;5044389;28;20104;-41
2022/12/18 04:49:54;;;;;;;66.72;30.55;;;-3272.10;88.80;;;;;;5034526;28;20459;-45
2022/12/18 04:52:21;;;;;;;65.40;29.42;;;-3271.90;88.70;;;;;;5033796;28;20025;-43
2022/12/18 04:54:46;;;;;;;61.83;30.38;;;-3272.00;88.70;;;;;;5034337;28;20029;-43
2022/12/18 04:57:13;;;;;;;70.57;31.00;;;-3271.90;88.70;;;;;;5044091;28;20033;-40
2022/12/18 04:59:42;;;;;;;63.40;27.92;;;-3272.00;88.80;;;;;;5053639;28;20036;-42
2022/12/18 05:02:09;;;;;;;63.20;30.17;;;-3271.90;88.70;;;;;;5053787;28;20108;-43
2022/12/18 05:04:35;;;;;;;72.70;28.02;;;-3271.90;88.70;;;;;;5053161;28;20369;-40
2022/12/18 05:07:02;;;;;;;56.60;27.33;;;-3271.90;88.30;;;;;;5052419;28;20032;-44
2022/12/18 05:09:28;;;;;;;60.38;30.38;;;-3271.90;88.30;;;;;;5054157;28;20025;-44
2022/12/18 05:11:55;;;;;;;58.05;28.40;;;-3271.80;88.10;;;;;;5054312;28;20512;-40
2022/12/18 05:14:22;;;;;;;53.63;24.80;;;-3271.80;88.20;;;;;;5042794;28;20092;-40
2022/12/18 05:16:49;;;;;;;57.00;26.25;;;-3271.70;88.20;;;;;;5032479;28;20040;-43
2022/12/18 05:19:16;;;;;;;54.97;26.73;;;-3271.70;88.30;;;;;;5049504;28;20029;-43
2022/12/18 05:21:43;;;;;;;54.35;25.77;;;-3271.80;88.20;;;;;;5053673;28;20057;-41
2022/12/18 05:24:10;;;;;;;54.85;25.73;;;-3271.70;88.10;;;;;;5052559;28;20031;-40
2022/12/18 05:26:39;;;;;;;56.13;24.60;;;-3271.70;88.10;;;;;;5052655;28;20120;-42
2022/12/18 05:29:06;;;;;;;53.40;25.40;;;-3271.60;88.10;;;;;;5013038;28;20116;-40
2022/12/18 05:31:33;;;;;;;53.47;24.45;;;-3271.70;88.20;;;;;;5024592;28;20081;-43
2022/12/18 05:34:00;;;;;;;55.15;24.08;;;-3271.60;88.10;;;;;;5032799;28;20072;-41
2022/12/18 05:36:27;;;;;;;55.53;26.35;;;-3271.70;88.30;;;;;;5033529;28;20029;-40
2022/12/18 05:38:54;;;;;;;50.05;23.25;;;-3271.70;88.10;;;;;;5032885;28;20025;-40
2022/12/18 05:41:20;;;;;;;43.42;22.50;;;-3271.70;88.00;;;;;;5032936;28;20065;-42
2022/12/18 05:43:47;;;;;;;45.40;21.30;;;-3271.60;87.60;;;;;;5033318;28;20072;-43
2022/12/18 05:46:17;;;;;;;45.25;21.75;;;-3271.60;87.70;;;;;;5046421;28;20052;-43
2022/12/18 05:48:44;;;;;;;47.65;22.92;;;-3271.60;87.60;;;;;;5053065;28;20017;-43
2022/12/18 05:51:17;;;;;;;48.28;24.85;;;-3271.60;87.60;;;;;;5045639;28;20025;-43
2022/12/18 05:53:45;;;;;;;42.22;22.33;;;-3271.60;87.40;;;;;;5032672;28;20031;-42
2022/12/18 05:56:17;;;;;;;44.40;23.00;;;-3271.50;87.40;;;;;;5043702;28;20037;-41
2022/12/18 05:58:45;;;;;;;45.22;23.10;;;-3271.50;87.30;;;;;;5051732;28;20461;-40
2022/12/18 06:01:20;;;;;;;46.67;22.00;;;-3271.50;87.40;;;;;;5049461;28;20107;-43
2022/12/18 06:03:47;;;;;;;42.92;21.17;;;-3271.50;87.60;;;;;;5031894;28;20037;-40
2022/12/18 06:06:25;;;;;;;41.10;21.85;;;-3271.50;87.80;;;;;;5033759;28;20029;-42
2022/12/18 06:08:51;;;;;;;41.33;20.60;;;-3271.50;87.40;;;;;;5033159;28;20037;-43
2022/12/18 06:11:21;;;;;;;33.95;19.23;;;-3271.40;87.50;;;;;;5032702;28;20025;-40
2022/12/18 06:13:57;;;;;;;39.60;21.05;;;-3271.40;87.40;;;;;;5041879;28;20024;-42
2022/12/18 06:16:25;;;;;;;41.75;19.80;;;-3271.40;87.40;;;;;;5049174;28;20486;-42
2022/12/18 06:18:52;;;;;;;35.20;19.23;;;-3271.50;87.40;;;;;;5031855;28;20040;-40
2022/12/18 06:21:21;;;;;;;33.28;20.08;;;-3271.50;87.50;;;;;;5032100;28;20025;-43
2022/12/18 06:23:48;;;;;;;34.72;20.05;;;-3271.50;87.30;;;;;;5038146;28;20029;-43
2022/12/18 06:26:15;;;;;;;33.00;19.05;;;-3271.50;87.00;;;;;;5051179;28;20025;-41
2022/12/18 06:28:42;;;;;;;32.83;18.00;;;-3271.50;87.30;;;;;;5023031;28;20018;-42
2022/12/18 06:31:09;;;;;;;33.92;17.02;;;-3271.50;87.10;;;;;;5021881;28;20103;-40
2022/12/18 06:33:36;;;;;;;32.15;19.75;;;-3271.50;87.40;;;;;;5031133;28;20034;-43
2022/12/18 06:36:09;;;;;;;35.50;18.40;;;-3271.50;87.50;;;;;;5014920;28;20033;-41
2022/12/18 06:38:40;;;;;;;32.97;17.55;;;-3271.50;87.20;;;;;;5033092;28;20414;-40
2022/12/18 06:41:12;;;;;;;37.05;20.65;;;-3271.60;87.30;;;;;;5028371;28;20065;-40
2022/12/18 06:43:38;;;;;;;41.50;19.73;;;-3271.60;87.00;;;;;;5020837;28;20018;-40
2022/12/18 06:46:05;;;;;;;31.27;17.25;;;-3271.60;87.00;;;;;;5022224;28;20025;-41
2022/12/18 06:48:31;;;;;;;34.85;17.17;;;-3271.50;86.70;;;;;;5026315;28;20033;-41
2022/12/18 06:50:57;;;;;;;30.20;17.40;;;-3271.50;86.60;;;;;;5020014;28;20030;-40
2022/12/18 06:53:27;;;;;;;29.20;15.98;;;-3271.50;86.80;;;;;;5027198;28;20036;-43
2022/12/18 06:56:04;;;;;;;;;;;-3271.50;86.60;;;;;;5025670;28;20033;-42
2022/12/18 06:58:33;;;;;;;23.40;13.85;;;-3271.40;86.80;;;;;;5025910;28;19932;-42
2022/12/18 07:01:04;;;;;;;30.70;16.45;;;-3271.40;86.80;;;;;;5029418;28;20120;-43
2022/12/18 07:03:32;;;;;;;34.65;18.15;;;-3271.50;87.00;;;;;;5025844;28;20369;-40
2022/12/18 07:05:59;;;;;;;32.30;15.20;;;-3271.50;86.90;;;;;;5025558;28;20033;-44
2022/12/18 07:08:28;;;;;;;28.80;16.38;;;-3271.60;86.70;;;;;;5029229;28;20021;-40
2022/12/18 07:10:54;;;;;;;27.33;16.67;;;-3271.60;86.60;;;;;;5025318;28;20026;-41
2022/12/18 07:13:21;;;;;;;30.88;17.10;;;-3271.60;86.60;;;;;;5023378;28;20226;-40
2022/12/18 07:15:51;;;;;;;30.05;14.80;;;-3271.50;86.60;;;;;;5029950;28;20032;-40
2022/12/18 07:18:19;;;;;;;28.10;16.52;;;-3271.50;86.60;;;;;;5025728;28;20017;-40
2022/12/18 07:20:50;;;;;;;27.75;15.90;;;-3271.60;86.60;;;;;;5026542;28;20100;-41
2022/12/18 07:23:16;;;;;;;28.92;15.18;;;-3271.60;86.80;;;;;;5026990;28;20029;-41
2022/12/18 07:25:43;;;;;;;28.67;15.38;;;-3271.50;86.60;;;;;;5016510;28;20036;-43
2022/12/18 07:28:09;;;;;;;28.85;16.55;;;-3271.60;86.70;;;;;;5027531;28;20029;-43
2022/12/18 07:30:38;;;;;;;22.73;14.35;;;-3271.60;86.60;;;;;;5023906;28;20026;-40
2022/12/18 07:33:04;;;;;;;23.70;14.27;;;-3271.50;86.40;;;;;;5025937;28;20483;-42
2022/12/18 07:35:35;;;;;;;29.67;14.90;;;-3271.50;86.50;;;;;;5026635;28;20026;-43
2022/12/18 07:38:00;;;;;;;29.63;14.02;;;-3271.50;86.70;;;;;;5025330;28;20463;-43
2022/12/18 07:40:30;;;;;;;29.73;14.43;;;-3271.50;86.50;;;;;;5023969;28;20041;-40
2022/12/18 07:42:55;;;;;;;;;;;-3271.60;86.80;;;;;;5022481;28;20060;-41
2022/12/18 07:45:21;;;;;;;22.23;12.90;;;-3271.60;86.60;;;;;;5022395;28;19944;-40
2022/12/18 07:47:48;;;;;;;25.70;14.70;;;-3271.60;86.60;;;;;;5023751;28;20401;-40
2022/12/18 07:50:15;;;;;;;25.27;15.00;;;-3271.60;86.50;;;;;;5024184;28;20037;-40
2022/12/18 07:52:42;;;;;;;23.05;14.23;;;-3271.60;86.50;;;;;;5024463;28;20045;-43
2022/12/18 07:55:09;;;;;;;25.70;13.77;;;-3271.70;86.60;;;;;;5020184;28;20025;-42
2022/12/18 07:57:35;;;;;;;22.27;13.18;;;-3271.70;86.50;;;;;;5025250;28;20091;-41
2022/12/18 08:00:03;;;;;;;21.30;12.63;;;-3271.70;86.30;;;;;;5028585;28;20075;-40
2022/12/18 08:02:33;;;;;;;25.38;13.80;;;-3271.70;86.50;;;;;;5023514;28;20084;-41
2022/12/18 08:05:00;;;;;;;23.52;14.07;;;-3271.80;86.50;;;;;;5024038;28;20030;-42
2022/12/18 08:07:27;;;;;;;24.92;13.65;;;-3271.80;86.50;;;;;;5023577;28;20034;-40
2022/12/18 08:09:54;;;;;;;21.45;14.13;;;-3271.80;86.40;;;;;;5023522;28;20029;-41
2022/12/18 08:12:20;;;;;;;22.38;14.63;;;-3271.80;86.20;;;;;;5022748;28;20025;-47
2022/12/18 08:14:47;;;;;;;23.67;13.05;;;-3271.80;86.30;;;;;;5027020;28;20021;-40
2022/12/18 08:17:14;;;;;;;22.95;13.45;;;-3271.80;86.60;;;;;;5027395;28;20037;-43
2022/12/18 08:19:43;;;;;;;20.23;12.80;;;-3271.90;86.60;;;;;;5029680;28;20059;-40
2022/12/18 08:22:12;;;;;;;;;;;-3271.90;86.30;;;;;;5017911;28;20034;-40
2022/12/18 08:24:43;;;;;;;22.60;13.52;;;-3271.90;86.40;;;;;;5024398;28;19913;-46
2022/12/18 08:27:10;;;;;;;21.80;12.02;;;-3271.90;86.00;;;;;;5020489;28;20030;-42
2022/12/18 08:29:37;;;;;;;25.38;12.95;;;-3272.00;86.10;;;;;;5025559;28;20026;-42
2022/12/18 08:32:02;;;;;;;24.25;14.05;;;-3272.00;86.10;;;;;;5030218;28;20414;-42
2022/12/18 08:34:34;;;;;;;22.95;12.52;;;-3272.10;86.20;;;;;;5022552;28;20026;-43
2022/12/18 08:37:01;;;;;;;21.75;13.65;;;-3272.10;86.00;;;;;;5014876;28;20415;-41
2022/12/18 08:39:27;;;;;;;20.60;12.25;;;-3272.20;86.00;;;;;;5020032;28;20467;-40
2022/12/18 08:44:42;;;;;;;21.42;11.63;;;-3272.30;85.80;;;;;;5015901;28;20163;-39
2022/12/18 08:47:12;;;;;;;22.77;12.40;;;-3272.30;85.60;;;;;;5030445;28;20126;-40
2022/12/18 08:49:37;;;;;;;;;;;-3272.40;85.80;;;;;;5030788;28;20076;-41
2022/12/18 08:52:04;;;;;;;20.13;11.05;;;-3272.40;85.70;;;;;;5024694;28;20002;-41
2022/12/18 08:54:31;;;;;;;19.88;11.68;;;-3272.50;85.80;;;;;;5019835;28;20018;-41
2022/12/18 08:56:58;;;;;;;22.52;12.52;;;-3272.60;85.70;;;;;;5025232;28;20041;-40
2022/12/18 08:59:24;;;;;;;23.77;12.75;;;-3272.70;85.60;;;;;;5022840;28;20033;-40
2022/12/18 09:01:55;;;;;;;19.83;11.35;;;-3272.80;85.60;;;;;;5016258;28;20356;-40
2022/12/18 09:04:22;;;;;;;22.98;14.27;;;-3272.80;85.30;;;;;;5023813;28;20048;-40
2022/12/18 09:06:52;;;;;;;20.50;13.50;;;-3272.80;85.30;;;;;;5034645;28;20040;-42
2022/12/18 09:09:22;;;;;;;18.98;11.43;;;-3272.80;85.30;;;;;;5054043;28;20028;-43
2022/12/18 09:11:49;;;;;;;20.10;11.93;;;-3272.90;85.50;;;;;;5034353;28;20443;-41
2022/12/18 09:14:16;;;;;;;23.70;13.05;;;-3272.90;85.30;;;;;;5019496;28;20121;-42
2022/12/18 09:16:43;;;;;;;18.73;12.25;;;-3272.90;85.20;;;;;;5023541;28;20407;-41
2022/12/18 09:19:12;;;;;;;17.55;10.23;;;-3273.00;85.20;;;;;;5023797;28;20120;-42
2022/12/18 09:21:40;;;;;;;19.05;12.27;;;-3273.00;85.20;;;;;;5025459;28;20382;-44
2022/12/18 09:24:13;;;;;;;18.40;12.02;;;-3273.00;85.20;;;;;;5020800;28;20045;-41
2022/12/18 09:26:40;;;;;;;16.77;10.52;;;-3273.00;85.00;;;;;;5022484;28;20343;-40
2022/12/18 09:29:09;;;;;;;17.73;11.25;;;-3273.10;85.00;;;;;;5041511;28;20085;-40
2022/12/18 09:31:38;;;;;;;19.58;12.40;;;-3273.10;84.50;;;;;;5021006;28;20034;-41
2022/12/18 09:34:07;;;;;;;16.58;9.25;;;-3273.10;84.50;;;;;;5024847;28;20030;-40
2022/12/18 09:36:37;;;;;;;17.02;10.75;;;-3273.10;84.60;;;;;;5024629;28;20443;-41
2022/12/18 09:39:05;;;;;;;16.55;10.73;;;-3273.10;84.60;;;;;;5031605;28;20115;-43
2022/12/18 09:41:42;;;;;;;17.17;10.35;;;-3273.10;84.50;;;;;;5052655;28;20166;-40
2022/12/18 09:44:19;;;;;;;16.95;10.27;;;-3273.20;84.60;;;;;;5031820;28;20065;-41
2022/12/18 09:47:07;;;;;;;15.85;9.82;;;-3273.30;84.50;;;;;;5016219;28;20045;-42
2022/12/18 09:49:40;;;;;;;16.05;10.13;;;-3273.30;84.40;;;;;;5017516;28;20367;-40
2022/12/18 09:52:35;;;;;;;18.85;11.90;;;-3273.30;83.90;;;;;;5013371;28;20751;-41
2022/12/18 09:55:43;;;;;;;15.70;9.95;;;-3273.40;84.10;;;;;;5012743;28;20455;-41
2022/12/18 09:58:46;;;;;;;17.80;11.68;;;-3273.40;84.00;;;;;;5021824;28;20022;-42
2022/12/18 10:01:21;;;;;;;18.15;10.25;;;-3273.40;83.90;;;;;;5026731;28;20053;-41
2022/12/18 10:03:48;;;;;;;20.90;11.85;;;-3273.40;83.80;;;;;;5016689;28;20025;-40
2022/12/18 10:06:44;;;;;;;18.95;11.15;;;-3273.50;83.90;;;;;;5024730;28;20029;-40
2022/12/18 10:09:25;;;;;;;19.10;11.23;;;-3273.50;83.60;;;;;;5032366;28;20083;-43
2022/12/18 10:12:13;;;;;;;20.23;9.90;;;-3273.60;83.70;;;;;;5045091;28;20057;-40
2022/12/18 10:15:16;;;;;;;19.25;9.18;;;-3273.60;83.30;;;;;;5052541;28;20025;-42
2022/12/18 10:18:03;;;;;;;14.73;9.65;;;-3273.60;83.60;;;;;;5030687;28;20033;-41
2022/12/18 10:21:04;;;;;;;15.02;9.07;;;-3273.50;83.50;;;;;;5013176;28;20424;-41
2022/12/18 10:23:39;;;;;;;15.00;10.13;;;-3273.60;83.50;;;;;;5012426;28;20034;-41
2022/12/18 10:26:13;;;;;;;14.88;9.32;;;-3273.70;83.50;;;;;;5025601;28;20043;-42
2022/12/18 10:28:41;;;;;;;14.50;9.85;;;-3273.80;83.80;;;;;;5051972;28;20575;-41
2022/12/18 10:31:19;;;;;;;15.50;10.13;;;-3273.80;83.70;;;;;;5049465;28;20373;-42
2022/12/18 10:33:46;;;;;;;17.02;8.45;;;-3273.90;83.40;;;;;;5052656;28;20082;-42
2022/12/18 10:36:16;;;;;;;13.07;8.63;;;-3273.90;83.20;;;;;;5052064;28;20357;-40
2022/12/18 10:38:43;;;;;;;12.60;8.90;;;-3274.00;83.20;;;;;;5034821;28;20427;-42
2022/12/18 10:41:25;;;;;;;13.90;8.82;;;-3273.90;82.80;;;;;;5008361;28;20407;-41
2022/12/18 10:44:18;;;;;;;16.23;8.80;;;-3273.90;83.00;;;;;;5012545;28;20036;-40
2022/12/18 10:46:46;;;;;;;13.75;8.52;;;-3274.00;83.00;;;;;;5012785;28;20030;-40
2022/12/18 10:49:47;;;;;;;11.73;7.65;;;-3274.00;83.10;;;;;;5011873;28;20022;-40
2022/12/18 10:52:26;;;;;;;14.45;8.65;;;-3274.00;82.80;;;;;;5014797;28;20525;-44
2022/12/18 10:55:03;;;;;;;13.05;8.40;;;-3274.10;83.20;;;;;;5025631;28;20032;-42
2022/12/18 10:57:48;;;;;;;16.48;9.98;;;-3274.10;83.10;;;;;;5028360;28;20075;-41
2022/12/18 11:00:32;;;;;;;13.98;8.68;;;-3274.20;83.20;;;;;;5020088;28;20054;-40
2022/12/18 11:03:02;;;;;;;14.25;8.77;;;-3274.30;83.40;;;;;;5023784;28;20044;-43
2022/12/18 11:05:33;;;;;;;13.13;8.05;;;-3274.30;83.20;;;;;;5029050;28;20087;-40
2022/12/18 11:08:01;;;;;;;10.88;6.55;;;-3274.30;83.20;;;;;;5031194;28;20445;-40
2022/12/18 11:10:40;;;;;;;10.80;7.05;;;-3274.40;83.10;;;;;;5031874;28;20040;-40
2022/12/18 11:13:22;;;;;;;11.18;6.57;;;-3274.50;82.90;;;;;;5047741;28;20037;-46
2022/12/18 11:15:50;;;;;;;13.15;7.45;;;-3274.40;82.70;;;;;;5025095;28;20522;-41
2022/12/18 11:18:28;;;;;;;12.30;7.95;;;-3274.50;82.80;;;;;;5011981;28;20030;-42
2022/12/18 11:21:01;;;;;;;11.48;7.38;;;-3274.60;82.90;;;;;;5050841;28;20043;-41
2022/12/18 11:23:28;;;;;;;11.95;7.57;;;-3274.60;83.10;;;;;;5016245;28;20699;-41
2022/12/18 11:26:01;;;;;;;11.50;7.70;;;-3274.60;83.20;;;;;;5017031;28;20053;-40
2022/12/18 11:28:36;;;;;;;13.60;8.52;;;-3274.80;83.60;;;;;;5012096;28;20533;-42
2022/12/18 11:31:28;;;;;;;13.30;8.65;;;-3274.80;83.60;;;;;;5025650;28;20022;-41
2022/12/18 11:34:33;;;;;;;11.30;7.75;;;-3274.90;83.20;;;;;;5022019;28;20083;-41
2022/12/18 11:37:03;;;;;;;14.18;8.00;;;-3274.90;83.10;;;;;;5025795;28;20116;-40
2022/12/18 11:39:49;;;;;;;12.18;8.38;;;-3274.90;83.20;;;;;;5054474;28;20365;-43
2022/12/18 11:42:19;;;;;;;14.25;7.93;;;-3274.90;82.70;;;;;;5047430;28;20030;-41
2022/12/18 11:45:01;;;;;;;12.10;8.18;;;-3275.00;82.60;;;;;;5030242;28;20455;-43
2022/12/18 11:48:04;;;;;;;13.48;7.88;;;-3274.80;82.50;;;;;;5026124;28;20140;-40
2022/12/18 11:51:01;;;;;;;11.90;7.80;;;-3274.80;82.70;;;;;;5018172;28;20036;-41
2022/12/18 11:53:30;;;;;;;12.48;8.65;;;-3274.90;83.10;;;;;;5026262;28;20086;-40
2022/12/18 11:56:13;;;;;;;13.07;7.47;;;-3274.90;83.10;;;;;;5055088;28;20114;-40
2022/12/18 11:58:44;;;;;;;14.98;9.93;;;-3274.90;83.30;;;;;;5032810;28;20029;-44
2022/12/18 12:01:30;;;;;;;13.27;8.43;;;-3275.00;83.20;;;;;;5034823;28;20057;-41
2022/12/18 12:04:17;;;;;;;14.35;8.73;;;-3274.90;83.00;;;;;;5021866;28;20096;-41
2022/12/18 12:06:57;;;;;;;14.00;8.00;;;-3275.00;83.70;;;;;;5028557;28;20045;-42
2022/12/18 12:10:14;;;;;;;13.27;7.97;;;-3275.00;84.00;;;;;;5028402;28;20025;-41
2022/12/18 12:12:54;;;;;;;16.20;10.02;;;-3275.00;83.80;;;;;;5017383;28;20102;-41
2022/12/18 12:15:19;;;;;;;;;;;-3275.00;83.90;;;;;;5020258;28;20034;-40
2022/12/18 12:18:10;;;;;;;14.13;9.20;;;-3275.10;83.70;;;;;;5017464;28;19917;-40
2022/12/18 12:20:53;;;;;;;13.70;8.82;;;-3275.10;83.40;;;;;;5027510;28;20033;-41
2022/12/18 12:23:39;;;;;;;13.38;10.40;;;-3275.10;83.60;;;;;;5026368;28;20666;-40
2022/12/18 12:26:11;;;;;;;16.67;9.82;;;-3275.10;83.50;;;;;;5014949;28;20378;-40
2022/12/18 12:29:00;;;;;;;12.38;8.82;;;-3275.10;83.70;;;;;;4997487;28;20073;-43
2022/12/18 12:31:44;;;;;;;13.77;8.57;;;-3275.10;83.70;;;;;;5014306;28;20463;-40
2022/12/18 12:34:28;;;;;;;13.50;9.43;;;-3275.10;83.90;;;;;;5050376;28;20536;-40
2022/12/18 12:37:15;;;;;;;15.38;9.13;;;-3275.10;84.10;;;;;;5043727;28;20021;-40
2022/12/18 12:39:47;;;;;;;16.40;9.27;;;-3275.10;84.10;;;;;;5023837;28;20466;-42